Time,TemperatureF,DewpointF,PressureIn,WindDirection,WindDirectionDegrees,WindSpeedMPH,WindSpeedGustMPH,Humidity,HourlyPrecipIn,Conditions,Clouds,dailyrainin,SoftwareType,DateUTC
2013-01-22 00:01:00,29.5,28.5,29.70,NE,46,2.0,2.0,96,0.00,,---,0.00,VWS V14.01,2013-01-22 05:01:00,
2013-01-22 00:16:00,29.6,28.6,29.69,NNW,348,0.0,3.0,96,0.00,,---,0.00,VWS V14.01,2013-01-22 05:16:00,
2013-01-22 00:31:00,29.6,28.6,29.68,NW,323,3.0,4.0,96,0.00,,---,0.00,VWS V14.01,2013-01-22 05:31:00,
2013-01-22 00:46:00,29.3,28.0,29.67,NNW,327,2.0,5.0,95,0.00,,---,0.00,VWS V14.01,2013-01-22 05:46:00,
2013-01-22 01:01:00,29.2,28.2,29.67,WNW,302,4.0,6.0,96,0.00,,---,0.00,VWS V14.01,2013-01-22 06:01:00,
2013-01-22 01:16:00,29.1,28.1,29.68,North,5,1.0,5.0,96,0.00,,---,0.00,VWS V14.01,2013-01-22 06:16:00,
2013-01-22 01:31:00,28.7,27.7,29.69,NNW,346,0.0,4.0,96,0.00,,---,0.00,VWS V14.01,2013-01-22 06:31:00,
2013-01-22 01:46:00,28.8,27.8,29.69,NW,315,1.0,4.0,96,0.00,,---,0.00,VWS V14.01,2013-01-22 06:46:00,
2013-01-22 02:01:00,28.9,27.9,29.69,NNW,334,4.0,5.0,96,0.00,,---,0.00,VWS V14.01,2013-01-22 07:01:00,
2013-01-22 02:16:00,28.7,27.7,29.68,WNW,297,0.0,5.0,96,0.00,,---,0.00,VWS V14.01,2013-01-22 07:16:00,
2013-01-22 02:31:00,28.6,27.6,29.68,NW,315,0.0,4.0,96,0.00,,---,0.00,VWS V14.01,2013-01-22 07:31:00,
2013-01-22 02:46:00,28.5,27.5,29.68,NW,318,0.0,3.0,96,0.00,,---,0.00,VWS V14.01,2013-01-22 07:46:00,
2013-01-22 03:01:00,28.5,27.5,29.66,NW,313,2.0,4.0,96,0.00,,---,0.00,VWS V14.01,2013-01-22 08:01:00,
2013-01-22 03:16:00,28.4,27.4,29.66,WNW,294,2.0,4.0,96,0.00,,---,0.00,VWS V14.01,2013-01-22 08:16:00,
2013-01-22 03:31:00,28.3,27.3,29.66,NW,310,2.0,5.0,96,0.00,,---,0.00,VWS V14.01,2013-01-22 08:31:00,
2013-01-22 03:46:00,28.1,27.1,29.65,WNW,291,3.0,4.0,96,0.00,,---,0.00,VWS V14.01,2013-01-22 08:46:00,
2013-01-22 04:01:00,27.9,26.9,29.64,NW,317,2.0,4.0,96,0.00,,---,0.00,VWS V14.01,2013-01-22 09:01:00,
2013-01-22 04:16:00,27.8,26.8,29.64,NW,319,4.0,5.0,96,0.00,,---,0.00,VWS V14.01,2013-01-22 09:16:00,
2013-01-22 04:31:00,27.8,26.8,29.65,NNW,328,2.0,5.0,96,0.00,,---,0.00,VWS V14.01,2013-01-22 09:31:00,
2013-01-22 04:46:00,27.8,26.8,29.65,WNW,292,2.0,7.0,96,0.00,,---,0.00,VWS V14.01,2013-01-22 09:46:00,
2013-01-22 05:01:00,27.6,26.6,29.65,WNW,294,6.0,7.0,96,0.00,,---,0.00,VWS V14.01,2013-01-22 10:01:00,
2013-01-22 05:16:00,27.2,26.2,29.65,WNW,286,6.0,7.0,96,0.00,,---,0.00,VWS V14.01,2013-01-22 10:16:00,
2013-01-22 05:31:00,26.7,25.7,29.66,WNW,297,3.0,7.0,96,0.00,,---,0.00,VWS V14.01,2013-01-22 10:31:00,
2013-01-22 05:46:00,26.1,25.1,29.66,NW,309,3.0,9.0,96,0.00,,---,0.00,VWS V14.01,2013-01-22 10:46:00,
2013-01-22 06:01:00,25.5,24.3,29.67,West,275,5.0,11.0,95,0.00,,---,0.00,VWS V14.01,2013-01-22 11:01:00,
2013-01-22 06:16:00,25.2,24.0,29.67,NW,304,6.0,9.0,95,0.00,,---,0.00,VWS V14.01,2013-01-22 11:16:00,
2013-01-22 06:31:00,25.0,23.8,29.68,WNW,295,4.0,9.0,95,0.00,,---,0.00,VWS V14.01,2013-01-22 11:31:00,
2013-01-22 06:46:00,24.7,23.0,29.68,WNW,286,4.0,7.0,93,0.00,,---,0.00,VWS V14.01,2013-01-22 11:46:00,
2013-01-22 07:01:00,24.4,22.4,29.69,West,275,6.0,11.0,92,0.00,,---,0.00,VWS V14.01,2013-01-22 12:01:00,
2013-01-22 07:16:00,24.2,22.0,29.69,NW,311,4.0,11.0,91,0.00,,---,0.00,VWS V14.01,2013-01-22 12:16:00,
2013-01-22 07:31:00,24.3,21.5,29.70,West,278,4.0,11.0,89,0.00,,---,0.00,VWS V14.01,2013-01-22 12:31:00,
2013-01-22 07:46:00,24.5,22.0,29.71,NW,315,8.0,12.0,90,0.00,,---,0.00,VWS V14.01,2013-01-22 12:46:00,
2013-01-22 08:01:00,24.4,21.6,29.71,WNW,298,3.0,13.0,89,0.00,,---,0.00,VWS V14.01,2013-01-22 13:01:00,
2013-01-22 08:16:00,24.7,21.7,29.71,NW,310,5.0,13.0,88,0.00,,---,0.00,VWS V14.01,2013-01-22 13:16:00,
2013-01-22 08:31:00,24.9,21.3,29.72,NW,306,4.0,12.0,86,0.00,,---,0.00,VWS V14.01,2013-01-22 13:31:00,
2013-01-22 08:46:00,25.2,21.0,29.73,West,279,11.0,18.0,84,0.00,,---,0.00,VWS V14.01,2013-01-22 13:46:00,
2013-01-22 09:01:00,25.1,20.4,29.74,WNW,297,11.0,19.0,82,0.00,,---,0.00,VWS V14.01,2013-01-22 14:01:00,
2013-01-22 09:16:00,24.6,19.3,29.74,WNW,284,10.0,24.0,80,0.00,,---,0.00,VWS V14.01,2013-01-22 14:16:00,
2013-01-22 09:31:00,24.5,18.9,29.75,NW,321,11.0,26.0,79,0.00,,---,0.00,VWS V14.01,2013-01-22 14:31:00,
2013-01-22 09:46:00,24.9,19.0,29.75,WNW,282,9.0,28.0,78,0.00,,---,0.00,VWS V14.01,2013-01-22 14:46:00,
2013-01-22 10:01:00,24.9,18.7,29.76,NW,309,18.0,26.0,77,0.00,,---,0.00,VWS V14.01,2013-01-22 15:01:00,
2013-01-22 10:16:00,25.1,18.6,29.76,WNW,290,19.0,27.0,76,0.00,,---,0.00,VWS V14.01,2013-01-22 15:16:00,
2013-01-22 10:31:00,24.6,17.5,29.75,NW,304,8.0,28.0,74,0.00,,---,0.00,VWS V14.01,2013-01-22 15:31:00,
2013-01-22 10:46:00,24.9,17.2,29.76,NNW,338,16.0,27.0,72,0.00,,---,0.00,VWS V14.01,2013-01-22 15:46:00,
2013-01-22 11:01:00,25.5,17.1,29.76,NNW,336,20.0,26.0,70,0.00,,---,0.00,VWS V14.01,2013-01-22 16:01:00,
2013-01-22 11:16:00,25.8,17.0,29.76,NW,323,14.0,28.0,69,0.00,,---,0.00,VWS V14.01,2013-01-22 16:16:00,
2013-01-22 11:31:00,25.6,16.2,29.77,WNW,286,18.0,25.0,67,0.00,,---,0.00,VWS V14.01,2013-01-22 16:31:00,
2013-01-22 11:46:00,24.9,14.8,29.77,NNW,327,12.0,29.0,65,0.00,,---,0.00,VWS V14.01,2013-01-22 16:46:00,
2013-01-22 12:01:00,24.8,14.0,29.77,WNW,289,13.0,26.0,63,0.00,,---,0.00,VWS V14.01,2013-01-22 17:01:00,
2013-01-22 12:16:00,24.7,13.6,29.78,WNW,294,16.0,23.0,62,0.00,,---,0.00,VWS V14.01,2013-01-22 17:16:00,
2013-01-22 12:31:00,26.0,14.8,29.77,NW,316,8.0,24.0,62,0.00,,---,0.00,VWS V14.01,2013-01-22 17:31:00,
2013-01-22 12:46:00,25.1,12.8,29.78,WNW,288,14.0,23.0,59,0.00,,---,0.00,VWS V14.01,2013-01-22 17:46:00,
2013-01-22 13:01:00,26.4,14.0,29.78,NNW,346,7.0,22.0,59,0.00,,---,0.00,VWS V14.01,2013-01-22 18:01:00,
2013-01-22 13:16:00,26.0,12.1,29.78,WNW,292,14.0,27.0,55,0.00,,---,0.00,VWS V14.01,2013-01-22 18:16:00,
2013-01-22 13:31:00,26.1,10.5,29.78,NW,307,19.0,24.0,51,0.00,,---,0.00,VWS V14.01,2013-01-22 18:31:00,
2013-01-22 13:46:00,25.9,9.4,29.79,NW,307,8.0,23.0,49,0.00,,---,0.00,VWS V14.01,2013-01-22 18:46:00,
2013-01-22 14:01:00,25.7,9.2,29.79,WNW,286,8.0,22.0,49,0.00,,---,0.00,VWS V14.01,2013-01-22 19:01:00,
2013-01-22 14:16:00,26.0,9.0,29.79,West,277,13.0,21.0,48,0.00,,---,0.00,VWS V14.01,2013-01-22 19:16:00,
2013-01-22 14:31:00,25.4,7.0,29.80,NW,312,14.0,23.0,45,0.00,,---,0.00,VWS V14.01,2013-01-22 19:31:00,
2013-01-22 14:46:00,25.4,6.5,29.80,West,279,10.0,22.0,44,0.00,,---,0.00,VWS V14.01,2013-01-22 19:46:00,
2013-01-22 15:01:00,25.1,6.8,29.81,NW,314,12.0,22.0,45,0.00,,---,0.00,VWS V14.01,2013-01-22 20:01:00,
2013-01-22 15:16:00,25.1,5.8,29.81,WNW,284,8.0,22.0,43,0.00,,---,0.00,VWS V14.01,2013-01-22 20:16:00,
2013-01-22 15:31:00,24.6,3.7,29.82,WNW,303,12.0,22.0,40,0.00,,---,0.00,VWS V14.01,2013-01-22 20:31:00,
2013-01-22 15:46:00,24.3,5.0,29.83,WNW,296,13.0,19.0,43,0.00,,---,0.00,VWS V14.01,2013-01-22 20:46:00,
2013-01-22 16:01:00,23.9,4.7,29.83,WNW,298,12.0,19.0,43,0.00,,---,0.00,VWS V14.01,2013-01-22 21:01:00,
2013-01-22 16:16:00,23.8,4.6,29.83,West,275,7.0,17.0,43,0.00,,---,0.00,VWS V14.01,2013-01-22 21:16:00,
2013-01-22 16:31:00,23.4,5.2,29.85,NW,319,10.0,18.0,45,0.00,,---,0.00,VWS V14.01,2013-01-22 21:31:00,
2013-01-22 16:46:00,23.1,5.4,29.86,West,277,6.0,14.0,46,0.00,,---,0.00,VWS V14.01,2013-01-22 21:46:00,
2013-01-22 17:01:00,23.1,5.4,29.86,WNW,297,9.0,17.0,46,0.00,,---,0.00,VWS V14.01,2013-01-22 22:01:00,
2013-01-22 17:16:00,22.7,5.5,29.88,WNW,298,10.0,13.0,47,0.00,,---,0.00,VWS V14.01,2013-01-22 22:16:00,
2013-01-22 17:31:00,22.8,6.5,29.88,WNW,286,7.0,12.0,49,0.00,,---,0.00,VWS V14.01,2013-01-22 22:31:00,
2013-01-22 17:46:00,22.7,7.3,29.89,West,270,8.0,13.0,51,0.00,,---,0.00,VWS V14.01,2013-01-22 22:46:00,
2013-01-22 18:16:00,22.5,6.7,29.91,West,280,8.0,14.0,50,0.00,,---,0.00,VWS V14.01,2013-01-22 23:16:00,
2013-01-22 18:31:00,22.2,6.4,29.91,WNW,289,4.0,19.0,50,0.00,,---,0.00,VWS V14.01,2013-01-22 23:31:00,
2013-01-22 18:46:00,22.0,6.7,29.92,WNW,285,9.0,18.0,51,0.00,,---,0.00,VWS V14.01,2013-01-22 23:46:00,
2013-01-22 19:01:00,22.0,6.7,29.92,WNW,294,10.0,17.0,51,0.00,,---,0.00,VWS V14.01,2013-01-23 00:01:00,
2013-01-22 19:16:00,21.6,6.3,29.92,West,281,11.0,16.0,51,0.00,,---,0.00,VWS V14.01,2013-01-23 00:16:00,
2013-01-22 19:31:00,21.1,6.7,29.93,WNW,286,10.0,15.0,53,0.00,,---,0.00,VWS V14.01,2013-01-23 00:31:00,
2013-01-22 19:46:00,20.5,5.7,29.94,WNW,288,7.0,14.0,52,0.00,,---,0.00,VWS V14.01,2013-01-23 00:46:00,
2013-01-22 20:01:00,20.5,4.4,29.94,WNW,292,7.0,15.0,49,0.00,,---,0.00,VWS V14.01,2013-01-23 01:01:00,
2013-01-22 20:16:00,20.0,4.4,29.94,WNW,294,7.0,15.0,50,0.00,,---,0.00,VWS V14.01,2013-01-23 01:16:00,
2013-01-22 20:31:00,20.0,4.4,29.95,WNW,292,8.0,18.0,50,0.00,,---,0.00,VWS V14.01,2013-01-23 01:31:00,
2013-01-22 20:46:00,19.7,4.1,29.95,West,269,9.0,17.0,50,0.00,,---,0.00,VWS V14.01,2013-01-23 01:46:00,
2013-01-22 21:01:00,19.3,4.1,29.95,WNW,299,9.0,18.0,51,0.00,,---,0.00,VWS V14.01,2013-01-23 02:01:00,
2013-01-22 21:16:00,19.2,4.5,29.96,WNW,302,6.0,19.0,52,0.00,,---,0.00,VWS V14.01,2013-01-23 02:16:00,
2013-01-22 21:46:00,18.9,5.0,29.97,West,281,6.0,16.0,54,0.00,,---,0.00,VWS V14.01,2013-01-23 02:46:00,
2013-01-22 22:01:00,18.8,5.3,29.97,WNW,290,6.0,18.0,55,0.00,,---,0.00,VWS V14.01,2013-01-23 03:01:00,
2013-01-22 22:16:00,18.6,5.1,29.98,WNW,297,9.0,16.0,55,0.00,,---,0.00,VWS V14.01,2013-01-23 03:16:00,
2013-01-22 22:31:00,18.3,4.4,29.98,WNW,300,12.0,18.0,54,0.00,,---,0.00,VWS V14.01,2013-01-23 03:31:00,
2013-01-22 22:46:00,18.2,4.0,29.99,WNW,294,10.0,19.0,53,0.00,,---,0.00,VWS V14.01,2013-01-23 03:46:00,
2013-01-22 23:01:00,17.9,4.5,29.99,WNW,294,7.0,19.0,55,0.00,,---,0.00,VWS V14.01,2013-01-23 04:01:00,
2013-01-22 23:16:00,17.7,4.7,29.99,WNW,284,11.0,18.0,56,0.00,,---,0.00,VWS V14.01,2013-01-23 04:16:00,
2013-01-22 23:31:00,17.4,5.5,29.99,West,278,9.0,15.0,59,0.00,,---,0.00,VWS V14.01,2013-01-23 04:31:00,
2013-01-22 23:46:00,17.3,5.8,29.99,WNW,296,7.0,17.0,60,0.00,,---,0.00,VWS V14.01,2013-01-23 04:46:00,